Time;durP1;ratioP1;P1;durP2;ratioP2;P2;SDS_P1;SDS_P2;PMS_P1;PMS_P2;Temp;Humidity;BMP_temperature;BMP_pressure;BME280_temperature;BME280_humidity;BME280_pressure;Samples;Min_cycle;Max_cycle;Signal;HPM_P1;HPM_P2
2022/07/31 00:00:18;;;;;;;;;;;;;;;;;;5097362;28;20026;-73
2022/07/31 00:02:45;;;;;;;;;;;;;;;;;;5095433;28;19928;-73
2022/07/31 00:05:12;;;;;;;;;;;;;;;;;;5098500;28;19938;-73
2022/07/31 00:07:39;;;;;;;;;;;;;;;;;;5101254;28;19977;-73
2022/07/31 00:10:06;;;;;;;;;;;;;;;;;;5101793;28;20018;-72
2022/07/31 00:12:33;;;;;;;;;;;;;;;;;;5099884;28;20018;-73
2022/07/31 00:15:00;;;;;;;;;;;;;;;;;;5100193;28;19924;-73
2022/07/31 00:17:27;;;;;;;;;;;;;;;;;;5102787;28;19967;-72
2022/07/31 00:19:54;;;;;;;;;;;;;;;;;;5102463;28;19932;-72
2022/07/31 00:22:21;;;;;;;;;;;;;;;;;;5101683;28;20287;-72
2022/07/31 00:24:48;;;;;;;;;;;;;;;;;;5101596;28;20379;-72
2022/07/31 00:27:15;;;;;;;;;;;;;;;;;;5098588;28;20596;-73
2022/07/31 00:29:42;;;;;;;;;;;;;;;;;;5100617;28;20035;-71
2022/07/31 00:32:10;;;;;;;;;;;;;;;;;;5098052;28;19932;-71
2022/07/31 00:34:37;;;;;;;;;;;;;;;;;;5098895;28;19924;-72
2022/07/31 00:37:04;;;;;;;;;;;;;;;;;;5098775;28;20264;-72
2022/07/31 00:39:31;;;;;;;;;;;;;;;;;;5100701;28;20022;-72
2022/07/31 00:41:58;;;;;;;;;;;;;;;;;;5096849;28;20363;-71
2022/07/31 00:44:25;;;;;;;;;;;;;;;;;;5098507;28;19970;-72
2022/07/31 00:46:52;;;;;;;;;;;;;;;;;;5100585;28;20319;-71
2022/07/31 00:49:19;;;;;;;;;;;;;;;;;;5099798;28;19928;-71
2022/07/31 00:51:46;;;;;;;;;;;;;;;;;;5098648;28;20030;-71
2022/07/31 00:54:13;;;;;;;;;;;;;;;;;;5105776;28;19953;-71
2022/07/31 00:56:40;;;;;;;;;;;;;;;;;;5104753;28;20285;-71
2022/07/31 00:59:07;;;;;;;;;;;;;;;;;;5111489;28;20419;-71
2022/07/31 01:01:34;;;;;;;;;;;;;;;;;;5102637;28;20367;-71
2022/07/31 01:04:01;;;;;;;;;;;;;;;;;;5098333;28;20359;-70
2022/07/31 01:06:28;;;;;;;;;;;;;;;;;;5096876;28;20018;-71
2022/07/31 01:08:55;;;;;;;;;;;;;;;;;;5111326;28;19950;-71
2022/07/31 01:11:22;;;;;;;;;;;;;;;;;;5106801;28;20382;-71
2022/07/31 01:13:49;;;;;;;;;;;;;;;;;;5099725;28;19999;-70
2022/07/31 01:16:17;;;;;;;;;;;;;;;;;;5098564;28;20027;-71
2022/07/31 01:18:44;;;;;;;;;;;;;;;;;;5099403;28;19927;-71
2022/07/31 01:21:10;;;;;;;;;;;;;;;;;;5095422;28;20031;-71
2022/07/31 01:23:37;;;;;;;;;;;;;;;;;;5101614;28;19924;-71
2022/07/31 01:26:04;;;;;;;;;;;;;;;;;;5099021;28;20015;-71
2022/07/31 01:28:31;;;;;;;;;;;;;;;;;;5099308;28;20334;-71
2022/07/31 01:30:58;;;;;;;;;;;;;;;;;;5099125;28;19969;-71
2022/07/31 01:33:25;;;;;;;;;;;;;;;;;;5099594;28;20014;-72
2022/07/31 01:35:52;;;;;;;;;;;;;;;;;;5098818;28;19930;-71
2022/07/31 01:38:19;;;;;;;;;;;;;;;;;;5103118;28;19930;-71
2022/07/31 01:40:46;;;;;;;;;;;;;;;;;;5098920;28;20022;-71
2022/07/31 01:43:13;;;;;;;;;;;;;;;;;;5095142;28;19974;-71
2022/07/31 01:45:40;;;;;;;;;;;;;;;;;;5100617;28;19927;-72
2022/07/31 01:48:07;;;;;;;;;;;;;;;;;;5100366;28;20442;-72
2022/07/31 01:50:34;;;;;;;;;;;;;;;;;;5095715;28;20179;-72
2022/07/31 01:53:01;;;;;;;;;;;;;;;;;;5096496;28;19925;-72
2022/07/31 01:55:28;;;;;;;;;;;;;;;;;;5110311;28;19966;-72
2022/07/31 01:57:55;;;;;;;;;;;;;;;;;;5095668;28;19928;-71
2022/07/31 02:00:22;;;;;;;;;;;;;;;;;;5097416;28;19959;-72
2022/07/31 02:02:49;;;;;;;;;;;;;;;;;;5101126;28;20017;-72
2022/07/31 02:05:16;;;;;;;;;;;;;;;;;;5092847;28;19924;-72
2022/07/31 02:07:43;;;;;;;;;;;;;;;;;;5097253;28;19930;-72
2022/07/31 02:10:10;;;;;;;;;;;;;;;;;;5094678;28;20041;-72
2022/07/31 02:12:37;;;;;;;;;;;;;;;;;;5102311;28;19971;-72
2022/07/31 02:15:04;;;;;;;;;;;;;;;;;;5094269;28;19924;-72
2022/07/31 02:17:31;;;;;;;;;;;;;;;;;;5096012;27;20021;-72
2022/07/31 02:19:59;;;;;;;;;;;;;;;;;;5093498;27;19924;-71
2022/07/31 02:22:26;;;;;;;;;;;;;;;;;;5097925;28;19928;-72
2022/07/31 02:24:54;;;;;;;;;;;18.80;99.90;;;;;;5093583;28;19990;-71
2022/07/31 02:27:21;;;;;;;;;;;18.90;99.90;;;;;;5091796;28;20012;-71
2022/07/31 02:29:48;;;;;;;;;;;18.80;99.90;;;;;;5096613;28;19945;-73
2022/07/31 02:32:16;;;;;;;;;;;18.90;99.90;;;;;;5094842;28;20343;-74
2022/07/31 02:34:44;;;;;;;;;;;18.80;99.90;;;;;;5091517;28;19964;-71
2022/07/31 02:37:12;;;;;;;;;;;18.80;99.90;;;;;;5096441;28;19979;-71
2022/07/31 02:39:40;;;;;;;;;;;18.80;99.90;;;;;;5094614;28;19966;-72
2022/07/31 02:42:08;;;;;;;;;;;18.70;99.90;;;;;;5091605;28;20218;-72
2022/07/31 02:44:35;;;;;;;;;;;;;;;;;;5095680;28;19930;-71
2022/07/31 02:47:04;;;;;;;;;;;18.70;99.90;;;;;;5092034;28;20280;-72
2022/07/31 02:49:32;;;;;;;;;;;18.70;99.90;;;;;;5093936;28;19977;-71
2022/07/31 02:51:58;;;;;;;;;;;18.70;99.90;;;;;;5093256;28;19924;-72
2022/07/31 02:54:25;;;;;;;;;;;18.70;99.90;;;;;;5094983;28;20022;-71
2022/07/31 02:56:52;;;;;;;;;;;18.60;99.90;;;;;;5094105;28;20264;-71
2022/07/31 02:59:21;;;;;;;;;;;18.60;99.90;;;;;;5097748;28;20354;-73
2022/07/31 03:01:47;;;;;;;;;;;18.50;99.90;;;;;;5097704;28;20451;-72
2022/07/31 03:04:14;;;;;;;;;;;18.60;99.90;;;;;;5094571;28;20418;-72
2022/07/31 03:06:42;;;;;;;;;;;18.60;99.90;;;;;;5091261;28;19967;-72
2022/07/31 03:09:08;;;;;;;;;;;18.50;99.90;;;;;;5090877;28;19932;-72
2022/07/31 03:11:35;;;;;;;;;;;18.70;99.90;;;;;;5100755;28;19986;-71
2022/07/31 03:14:02;;;;;;;;;;;18.60;99.90;;;;;;5096545;28;19967;-71
2022/07/31 03:16:31;;;;;;;;;;;18.60;99.90;;;;;;5093838;28;20018;-71
2022/07/31 03:18:58;;;;;;;;;;;18.60;99.90;;;;;;5095273;28;19924;-71
2022/07/31 03:21:25;;;;;;;;;;;;;;;;;;5099572;28;19967;-71
2022/07/31 03:23:52;;;;;;;;;;;18.50;99.90;;;;;;5096404;28;19924;-72
2022/07/31 03:26:18;;;;;;;;;;;18.50;99.90;;;;;;5105156;28;20007;-71
2022/07/31 03:28:45;;;;;;;;;;;18.60;99.90;;;;;;5102659;28;19931;-72
2022/07/31 03:31:12;;;;;;;;;;;18.50;99.90;;;;;;5107627;28;19931;-71
2022/07/31 03:33:40;;;;;;;;;;;18.50;99.90;;;;;;5104331;28;20015;-71
2022/07/31 03:36:08;;;;;;;;;;;18.50;99.90;;;;;;5103413;28;19963;-72
2022/07/31 03:38:34;;;;;;;;;;;18.40;99.90;;;;;;5097811;28;19934;-72
2022/07/31 03:41:01;;;;;;;;;;;18.40;99.90;;;;;;5101681;28;19927;-71
2022/07/31 03:43:29;;;;;;;;;;;18.40;99.90;;;;;;5097333;28;20014;-72
2022/07/31 03:45:56;;;;;;;;;;;18.40;99.90;;;;;;5101557;28;19928;-71
2022/07/31 03:48:23;;;;;;;;;;;18.40;99.90;;;;;;5112466;27;20010;-72
2022/07/31 03:50:52;;;;;;;;;;;18.40;99.90;;;;;;5100771;28;19938;-70
2022/07/31 03:53:18;;;;;;;;;;;18.50;99.90;;;;;;5098064;28;20022;-70
2022/07/31 03:55:45;;;;;;;;;;;18.40;99.90;;;;;;5105480;27;19931;-70
2022/07/31 03:58:12;;;;;;;;;;;18.40;99.90;;;;;;5105477;28;20010;-71
2022/07/31 04:00:39;;;;;;;;;;;18.90;99.90;;;;;;5105706;27;19959;-70
2022/07/31 04:03:07;;;;;;;;;;;18.40;99.90;;;;;;5104357;27;19990;-70
2022/07/31 04:05:33;;;;;;;;;;;18.40;99.90;;;;;;5096326;28;19966;-70
2022/07/31 04:08:01;;;;;;;;;;;18.40;99.90;;;;;;5095874;28;19974;-72
2022/07/31 04:10:28;;;;;;;;;;;18.40;99.90;;;;;;5112695;27;19931;-72
2022/07/31 04:12:55;;;;;;;;;;;18.30;99.90;;;;;;5102904;28;20010;-69
2022/07/31 04:15:21;;;;;;;;;;;18.30;99.90;;;;;;5103816;27;19932;-71
2022/07/31 04:17:48;;;;;;;;;;;18.30;99.90;;;;;;5107809;27;20018;-70
2022/07/31 04:20:15;;;;;;;;;;;18.30;99.90;;;;;;5106804;27;19981;-71
2022/07/31 04:22:42;;;;;;;;;;;18.30;99.90;;;;;;5101385;27;20014;-71
2022/07/31 04:25:10;;;;;;;;;;;18.30;99.90;;;;;;5103822;27;20010;-71
2022/07/31 04:27:37;;;;;;;;;;;18.30;99.90;;;;;;5103499;27;20564;-71
2022/07/31 04:30:04;;;;;;;;;;;18.30;99.90;;;;;;5100290;27;19963;-71
2022/07/31 04:32:30;;;;;;;;;;;18.30;99.90;;;;;;5100099;28;19967;-71
2022/07/31 04:34:57;;;;;;;;;;;18.30;99.90;;;;;;5101488;28;19965;-71
2022/07/31 04:37:24;;;;;;;;;;;18.30;99.90;;;;;;5102795;27;20381;-72
2022/07/31 04:39:50;;;;;;;;;;;18.30;99.90;;;;;;5107049;27;19990;-71
2022/07/31 04:42:18;;;;;;;;;;;18.30;99.90;;;;;;5106574;28;19927;-71
2022/07/31 04:44:45;;;;;;;;;;;18.30;99.90;;;;;;5107312;27;19924;-71
2022/07/31 04:47:13;;;;;;;;;;;18.30;99.90;;;;;;5098449;28;20383;-71
2022/07/31 04:49:39;;;;;;;;;;;18.40;99.90;;;;;;5101353;28;20677;-71
2022/07/31 04:52:06;;;;;;;;;;;18.40;99.90;;;;;;5110060;27;20006;-71
2022/07/31 04:54:33;;;;;;;;;;;18.40;99.90;;;;;;5109724;27;19967;-71
2022/07/31 04:56:59;;;;;;;;;;;18.40;99.90;;;;;;5107124;27;19931;-71
2022/07/31 04:59:27;;;;;;;;;;;18.40;99.90;;;;;;5112761;27;19983;-71
2022/07/31 05:01:54;;;;;;;;;;;18.40;99.90;;;;;;5096233;27;20413;-71
2022/07/31 05:04:21;;;;;;;;;;;18.40;99.90;;;;;;5113521;27;20363;-71
2022/07/31 05:06:48;;;;;;;;;;;18.40;99.90;;;;;;5104299;27;19924;-71
2022/07/31 05:09:16;;;;;;;;;;;18.50;99.90;;;;;;5106570;28;20014;-72
2022/07/31 05:11:43;;;;;;;;;;;18.50;99.90;;;;;;5107795;27;20022;-71
2022/07/31 05:14:11;;;;;;;;;;;18.60;99.90;;;;;;5103164;28;19923;-71
2022/07/31 05:16:39;;;;;;;;;;;18.60;99.90;;;;;;5097950;27;20023;-72
2022/07/31 05:19:06;;;;;;;;;;;18.60;99.90;;;;;;5103845;27;19951;-71
2022/07/31 05:21:33;;;;;;;;;;;18.60;99.90;;;;;;5102997;27;19939;-70
2022/07/31 05:24:00;;;;;;;;;;;18.60;99.90;;;;;;5104833;27;20370;-72
2022/07/31 05:26:27;;;;;;;;;;;18.60;99.90;;;;;;5104854;28;20038;-72
2022/07/31 05:28:55;;;;;;;;;;;18.70;99.90;;;;;;5117945;27;20401;-73
2022/07/31 05:31:22;;;;;;;;;;;18.80;99.90;;;;;;5101623;27;19935;-73
2022/07/31 05:33:50;;;;;;;;;;;18.90;99.90;;;;;;5097617;28;19931;-72
2022/07/31 05:36:17;;;;;;;;;;;18.90;99.90;;;;;;5098646;28;20414;-73
2022/07/31 05:38:44;;;;;;;;;;;19.10;99.90;;;;;;5091332;28;19924;-73
2022/07/31 05:41:11;;;;;;;;;;;19.00;99.90;;;;;;5101894;28;19924;-72
2022/07/31 05:43:38;;;;;;;;;;;19.10;99.90;;;;;;5104429;27;20022;-72
2022/07/31 05:46:05;;;;;;;;;;;19.20;99.90;;;;;;5114570;27;20022;-73
2022/07/31 05:48:32;;;;;;;;;;;19.30;99.90;;;;;;5104810;28;19928;-74
2022/07/31 05:51:00;;;;;;;;;;;19.40;99.90;;;;;;5100840;28;19977;-73
2022/07/31 05:53:27;;;;;;;;;;;19.50;99.90;;;;;;5101720;28;20015;-72
2022/07/31 05:55:53;;;;;;;;;;;19.70;99.90;;;;;;5100677;28;19974;-71
2022/07/31 05:58:20;;;;;;;;;;;19.60;99.90;;;;;;5093615;28;20391;-72
2022/07/31 06:00:48;;;;;;;;;;;19.70;99.90;;;;;;5098308;28;19960;-73
2022/07/31 06:03:15;;;;;;;;;;;19.70;99.90;;;;;;5094953;28;20594;-71
2022/07/31 06:05:42;;;;;;;;;;;19.80;99.90;;;;;;5095684;28;20383;-72
2022/07/31 06:08:11;;;;;;;;;;;19.90;99.90;;;;;;5094454;28;19938;-72
2022/07/31 06:10:37;;;;;;;;;;;20.10;99.90;;;;;;5095100;28;20043;-72
2022/07/31 06:13:04;;;;;;;;;;;20.30;99.90;;;;;;5097869;28;19986;-72
2022/07/31 06:15:31;;;;;;;;;;;20.50;99.90;;;;;;5107782;28;19955;-71
2022/07/31 06:17:59;;;;;;;;;;;20.60;99.90;;;;;;5093059;28;19924;-72
2022/07/31 06:20:25;;;;;;;;;;;20.50;99.90;;;;;;5097000;28;20023;-72
2022/07/31 06:22:52;;;;;;;;;;;20.60;99.90;;;;;;5102645;28;19989;-72
2022/07/31 06:25:20;;;;;;;;;;;20.70;99.90;;;;;;5098920;28;20462;-72
2022/07/31 06:27:47;;;;;;;;;;;20.60;99.90;;;;;;5095594;27;20442;-72
2022/07/31 06:30:14;;;;;;;;;;;20.70;99.90;;;;;;5096042;28;19979;-71
2022/07/31 06:32:41;;;;;;;;;;;20.90;99.90;;;;;;5105483;27;20015;-72
2022/07/31 06:35:09;;;;;;;;;;;20.80;99.90;;;;;;5099622;27;19932;-71
2022/07/31 06:37:35;;;;;;;;;;;20.90;99.90;;;;;;5099374;27;19924;-71
2022/07/31 06:40:03;;;;;;;;;;;21.10;99.90;;;;;;5095578;27;19963;-71
2022/07/31 06:42:31;;;;;;;;;;;21.20;99.90;;;;;;5097194;28;19985;-70
2022/07/31 06:44:57;;;;;;;;;;;21.20;99.90;;;;;;5095202;28;20276;-70
2022/07/31 06:47:25;;;;;;;;;;;21.20;99.90;;;;;;5091444;27;19940;-72
2022/07/31 06:49:52;;;;;;;;;;;21.40;99.90;;;;;;5095333;28;19981;-70
2022/07/31 06:52:19;;;;;;;;;;;21.50;99.90;;;;;;5096047;28;19935;-70
2022/07/31 06:54:46;;;;;;;;;;;21.70;99.90;;;;;;5102909;28;20015;-71
2022/07/31 06:57:13;;;;;;;;;;;21.70;99.90;;;;;;5100334;28;19924;-71
2022/07/31 06:59:41;;;;;;;;;;;21.60;99.90;;;;;;5096578;28;20375;-71
2022/07/31 07:02:08;;;;;;;;;;;22.20;99.90;;;;;;5106852;28;20034;-71
2022/07/31 07:04:35;;;;;;;;;;;24.10;99.90;;;;;;5106039;28;20389;-71
2022/07/31 07:07:01;;;;;;;;;;;24.50;99.90;;;;;;5100810;28;20346;-71
2022/07/31 07:09:28;;;;;;;;;;;23.90;99.90;;;;;;5102759;28;20377;-71
2022/07/31 07:11:55;;;;;;;;;;;23.60;99.90;;;;;;5103687;28;19934;-71
2022/07/31 07:14:22;;;;;;;;;;;23.30;99.90;;;;;;5105355;28;19924;-72
2022/07/31 07:16:50;;;;;;;;;;;23.20;99.90;;;;;;5100555;28;19955;-71
2022/07/31 07:19:17;;;;;;;;;;;23.00;99.90;;;;;;5106388;28;19928;-71
2022/07/31 07:21:44;;;;;;;;;;;22.90;99.90;;;;;;5109239;28;20014;-70
2022/07/31 07:24:10;;;;;;;;;;;22.80;99.90;;;;;;5105019;28;20022;-73
2022/07/31 07:26:37;;;;;;;;;;;23.00;99.90;;;;;;5098677;28;20027;-71
2022/07/31 07:29:04;;;;;;;;;;;23.40;99.90;;;;;;5096137;28;19966;-73
2022/07/31 07:31:30;;;;;;;;;;;24.50;99.90;;;;;;5101063;28;20406;-72
2022/07/31 07:34:00;;;;;;;;;;;26.60;99.90;;;;;;5099435;28;20435;-72
2022/07/31 07:36:26;;;;;;;;;;;27.80;97.00;;;;;;5096062;28;19931;-71
2022/07/31 07:38:53;;;;;;;;;;;26.90;96.20;;;;;;5099385;28;20007;-71
2022/07/31 07:41:20;;;;;;;;;;;25.80;98.40;;;;;;5093182;28;19955;-71
2022/07/31 07:43:47;;;;;;;;;;;24.90;99.90;;;;;;5103471;28;19930;-71
2022/07/31 07:46:14;;;;;;;;;;;24.40;99.90;;;;;;5092401;28;22746;-71
2022/07/31 07:48:40;;;;;;;;;;;24.80;99.90;;;;;;5103081;28;19923;-71
2022/07/31 07:51:08;;;;;;;;;;;24.90;99.90;;;;;;5105985;28;20126;-71
2022/07/31 07:53:35;;;;;;;;;;;24.60;99.90;;;;;;5096090;28;20322;-71
2022/07/31 07:56:02;;;;;;;;;;;24.40;99.90;;;;;;5097329;28;20298;-71
2022/07/31 07:58:29;;;;;;;;;;;24.80;99.90;;;;;;5096000;28;19927;-71
2022/07/31 08:00:56;;;;;;;;;;;25.10;99.90;;;;;;5102786;28;20033;-70
2022/07/31 08:03:22;;;;;;;;;;;26.00;99.90;;;;;;5097948;28;20020;-71
2022/07/31 08:05:49;;;;;;;;;;;26.50;99.00;;;;;;5092773;28;19964;-72
2022/07/31 08:08:17;;;;;;;;;;;26.80;98.00;;;;;;5090103;28;20394;-72
2022/07/31 08:10:44;;;;;;;;;;;27.60;96.10;;;;;;5098864;28;19927;-72
2022/07/31 08:13:10;;;;;;;;;;;29.00;93.00;;;;;;5097705;28;20028;-71
2022/07/31 08:15:37;;;;;;;;;;;30.10;97.40;;;;;;5092920;28;20018;-72
2022/07/31 08:18:04;;;;;;;;;;;29.80;97.50;;;;;;5096709;28;19923;-72
2022/07/31 08:20:31;;;;;;;;;;;;;;;;;;5095480;28;19943;-72
2022/07/31 08:22:58;;;;;;;;;;;;;;;;;;5101570;28;19959;-72
2022/07/31 08:25:25;;;;;;;;;;;;;;;;;;5104030;28;19924;-73
2022/07/31 08:27:52;;;;;;;;;;;;;;;;;;5099710;28;20019;-73
2022/07/31 08:30:19;;;;;;;;;;;;;;;;;;5100742;28;19994;-72
2022/07/31 08:32:46;;;;;;;;;;;;;;;;;;5098307;28;19938;-72
2022/07/31 08:35:13;;;;;;;;;;;;;;;;;;5101505;28;19932;-72
2022/07/31 08:37:40;;;;;;;;;;;;;;;;;;5099613;28;20024;-73
2022/07/31 08:40:07;;;;;;;;;;;;;;;;;;5100278;28;20003;-73
2022/07/31 08:42:35;;;;;;;;;;;;;;;;;;5100834;28;19931;-72
2022/07/31 08:45:02;;;;;;;;;;;;;;;;;;5112124;28;19928;-72
2022/07/31 08:47:29;;;;;;;;;;;;;;;;;;5103515;28;19967;-75
2022/07/31 08:49:56;;;;;;;;;;;;;;;;;;5104401;28;20011;-72
2022/07/31 08:52:23;;;;;;;;;;;;;;;;;;5104041;28;19938;-75
2022/07/31 08:54:50;;;;;;;;;;;;;;;;;;5102247;28;20264;-72
2022/07/31 08:57:17;;;;;;;;;;;;;;;;;;5110053;28;20390;-73
2022/07/31 08:59:44;;;;;;;;;;;;;;;;;;5108215;28;20429;-73
2022/07/31 09:02:11;;;;;;;;;;;;;;;;;;5104545;28;19969;-72
2022/07/31 09:04:38;;;;;;;;;;;;;;;;;;5098632;28;20002;-74
2022/07/31 09:07:05;;;;;;;;;;;;;;;;;;5102058;28;19924;-72
2022/07/31 09:09:32;;;;;;;;;;;;;;;;;;5096677;28;20023;-71
2022/07/31 09:11:59;;;;;;;;;;;;;;;;;;5098419;28;19931;-71
2022/07/31 09:14:26;;;;;;;;;;;;;;;;;;5111296;28;19990;-73
2022/07/31 09:16:53;;;;;;;;;;;;;;;;;;5108499;28;19932;-73
2022/07/31 09:19:20;;;;;;;;;;;;;;;;;;5096120;28;20342;-71
2022/07/31 09:21:47;;;;;;;;;;;;;;;;;;5094022;28;20019;-73
2022/07/31 09:24:14;;;;;;;;;;;;;;;;;;5101496;28;20409;-74
2022/07/31 09:26:43;;;;;;;;;;;26.20;99.90;;;;;;5098679;28;19962;-72
2022/07/31 09:29:11;;;;;;;;;;;;;;;;;;5098205;27;20022;-74
2022/07/31 09:31:38;;;;;;;;;;;28.50;99.90;;;;;;5104071;28;19946;-74
2022/07/31 09:34:05;;;;;;;;;;;28.70;99.90;;;;;;5108722;28;19977;-75
2022/07/31 09:36:32;;;;;;;;;;;28.40;99.90;;;;;;5100247;28;20352;-71
2022/07/31 09:38:59;;;;;;;;;;;27.20;99.90;;;;;;5105875;28;19924;-75
2022/07/31 09:41:26;;;;;;;;;;;26.50;99.90;;;;;;5096482;28;19981;-75
2022/07/31 09:43:59;;;;;;;;;;;26.40;99.90;;;;;;5093866;28;20395;-73
2022/07/31 09:46:26;;;;;;;;;;;26.10;99.90;;;;;;5101339;28;19934;-73
2022/07/31 09:48:54;;;;;;;;;;;25.60;99.90;;;;;;5098051;28;20022;-72
2022/07/31 09:51:22;;;;;;;;;;;25.40;99.90;;;;;;5095648;28;19928;-73
2022/07/31 09:53:52;;;;;;;;;;;25.50;99.90;;;;;;5099616;28;20030;-73
2022/07/31 09:56:29;;;;;;;;;;;25.50;99.90;;;;;;5103711;28;19977;-74
2022/07/31 09:58:57;;;;;;;;;;;25.40;99.90;;;;;;5095748;28;20019;-72
2022/07/31 10:01:24;;;;;;;;;;;25.40;99.90;;;;;;5100991;28;20015;-72
2022/07/31 10:03:52;;;;;;;;;;;25.10;99.90;;;;;;5108758;28;20019;-73
2022/07/31 10:06:19;;;;;;;;;;;24.80;99.90;;;;;;5104000;28;19974;-74
2022/07/31 10:08:47;;;;;;;;;;;24.60;99.90;;;;;;5103058;28;20397;-73
2022/07/31 10:11:15;;;;;;;;;;;24.40;99.90;;;;;;5089248;28;20042;-73
2022/07/31 10:13:44;;;;;;;;;;;24.50;99.90;;;;;;5100723;28;20022;-73
2022/07/31 10:16:13;;;;;;;;;;;24.50;99.90;;;;;;5098255;28;20041;-73
2022/07/31 10:18:42;;;;;;;;;;;24.40;99.90;;;;;;5109188;28;19959;-73
2022/07/31 10:21:11;;;;;;;;;;;24.50;99.90;;;;;;5101287;28;20019;-73
2022/07/31 10:23:39;;;;;;;;;;;24.70;99.90;;;;;;5104471;28;19932;-73
2022/07/31 10:26:06;;;;;;;;;;;25.00;99.90;;;;;;5093232;28;19974;-73
2022/07/31 10:28:36;;;;;;;;;;;25.10;99.90;;;;;;5093817;28;20018;-74
2022/07/31 10:31:03;;;;;;;;;;;25.30;99.90;;;;;;5093972;28;19924;-74
2022/07/31 10:33:31;;;;;;;;;;;25.50;99.90;;;;;;5096860;28;20384;-74
2022/07/31 10:35:58;;;;;;;;;;;;;;;;;;5090804;28;20343;-74
2022/07/31 10:38:27;;;;;;;;;;;25.70;99.90;;;;;;5093663;28;19924;-75
2022/07/31 10:40:55;;;;;;;;;;;25.50;99.90;;;;;;5099887;28;20331;-75
2022/07/31 10:43:25;;;;;;;;;;;25.70;99.90;;;;;;5091391;28;19931;-74
2022/07/31 10:45:53;;;;;;;;;;;25.90;99.90;;;;;;5102499;28;19924;-75
2022/07/31 10:48:20;;;;;;;;;;;26.10;99.90;;;;;;5099580;28;19924;-75
2022/07/31 10:50:49;;;;;;;;;;;26.00;99.90;;;;;;5104962;28;19923;-75
2022/07/31 10:53:16;;;;;;;;;;;26.10;99.90;;;;;;5094971;28;20090;-75
2022/07/31 10:55:43;;;;;;;;;;;25.80;99.90;;;;;;5099002;28;19966;-75
2022/07/31 10:58:11;;;;;;;;;;;25.60;99.90;;;;;;5104875;28;20010;-74
2022/07/31 11:00:38;;;;;;;;;;;25.40;99.90;;;;;;5093890;28;19969;-76
2022/07/31 11:03:15;;;;;;;;;;;25.30;99.90;;;;;;5092574;28;19967;-78
2022/07/31 11:05:53;;;;;;;;;;;25.20;99.90;;;;;;5099866;28;19924;-74
2022/07/31 11:08:22;;;;;;;;;;;25.00;99.90;;;;;;5092208;28;21592;-75
2022/07/31 11:10:49;;;;;;;;;;;24.80;99.90;;;;;;5093269;28;19930;-74
2022/07/31 11:13:16;;;;;;;;;;;24.70;99.90;;;;;;5097775;28;20006;-74
2022/07/31 11:15:43;;;;;;;;;;;24.80;99.90;;;;;;5105372;28;19923;-77
2022/07/31 11:18:12;;;;;;;;;;;25.00;99.90;;;;;;5103339;28;20010;-74
2022/07/31 11:20:40;;;;;;;;;;;25.20;99.90;;;;;;5101760;28;19939;-74
2022/07/31 11:23:08;;;;;;;;;;;25.60;99.90;;;;;;5105839;28;19924;-74
2022/07/31 11:25:35;;;;;;;;;;;;;;;;;;5102113;28;20367;-74
2022/07/31 11:28:12;;;;;;;;;;;25.50;99.90;;;;;;5093500;28;20035;-74
2022/07/31 11:30:57;;;;;;;;;;;25.50;99.90;;;;;;5106129;28;20011;-74
2022/07/31 11:33:34;;;;;;;;;;;25.60;99.90;;;;;;5091940;28;20015;-74
2022/07/31 11:36:08;;;;;;;;;;;26.10;99.90;;;;;;5089717;28;20010;-74
2022/07/31 11:38:36;;;;;;;;;;;26.10;99.90;;;;;;5098372;28;20018;-74
2022/07/31 11:41:04;;;;;;;;;;;26.10;99.90;;;;;;5100315;28;20097;-74
2022/07/31 11:43:31;;;;;;;;;;;26.30;99.90;;;;;;5089891;28;19963;-74
2022/07/31 11:45:57;;;;;;;;;;;26.40;99.90;;;;;;5103786;28;19959;-74
2022/07/31 11:48:25;;;;;;;;;;;26.20;99.90;;;;;;5106662;28;20302;-75
2022/07/31 11:50:52;;;;;;;;;;;26.40;99.90;;;;;;5098220;28;20012;-77
2022/07/31 11:53:20;;;;;;;;;;;26.60;99.90;;;;;;5097324;28;20286;-75
2022/07/31 11:55:49;;;;;;;;;;;26.80;99.90;;;;;;5096725;28;20272;-77
2022/07/31 11:58:16;;;;;;;;;;;26.70;99.90;;;;;;5093647;28;19931;-74
2022/07/31 12:00:50;;;;;;;;;;;26.70;99.90;;;;;;5103458;28;19977;-74
2022/07/31 12:03:17;;;;;;;;;;;27.00;99.90;;;;;;5095814;27;19931;-75
2022/07/31 12:05:44;;;;;;;;;;;26.80;99.90;;;;;;5101208;28;19946;-73
2022/07/31 12:08:11;;;;;;;;;;;26.70;99.90;;;;;;5100517;28;20268;-73
2022/07/31 12:10:39;;;;;;;;;;;26.80;99.90;;;;;;5094442;28;19999;-73
2022/07/31 12:13:06;;;;;;;;;;;;;;;;;;5094995;28;19963;-73
2022/07/31 12:15:34;;;;;;;;;;;26.70;99.90;;;;;;5098358;28;19995;-73
2022/07/31 12:18:01;;;;;;;;;;;26.80;99.90;;;;;;5101726;27;19931;-73
2022/07/31 12:20:29;;;;;;;;;;;26.60;99.90;;;;;;5101588;28;20356;-72
2022/07/31 12:22:57;;;;;;;;;;;26.30;99.90;;;;;;5098312;27;19927;-75
2022/07/31 12:25:23;;;;;;;;;;;26.20;99.90;;;;;;5103714;27;20647;-73
2022/07/31 12:27:52;;;;;;;;;;;26.10;99.90;;;;;;5098706;27;19924;-74
2022/07/31 12:30:21;;;;;;;;;;;26.00;99.90;;;;;;5098223;28;19924;-73
2022/07/31 12:32:49;;;;;;;;;;;26.00;99.90;;;;;;5104847;28;19924;-74
2022/07/31 12:35:16;;;;;;;;;;;26.20;99.90;;;;;;5106238;27;20010;-72
2022/07/31 12:37:44;;;;;;;;;;;26.80;99.90;;;;;;5093812;28;20022;-72
2022/07/31 12:40:21;;;;;;;;;;;26.80;99.90;;;;;;5101694;28;19927;-73
2022/07/31 12:42:48;;;;;;;;;;;26.70;99.90;;;;;;5103225;28;19930;-72
2022/07/31 12:45:14;;;;;;;;;;;26.70;99.90;;;;;;5097628;27;19934;-73
2022/07/31 12:47:41;;;;;;;;;;;26.70;99.90;;;;;;5103994;27;19998;-73
2022/07/31 12:50:10;;;;;;;;;;;26.40;99.90;;;;;;5105265;28;20015;-72
2022/07/31 12:52:37;;;;;;;;;;;26.40;99.90;;;;;;5098988;27;19932;-72
2022/07/31 12:55:04;;;;;;;;;;;25.80;99.90;;;;;;5102897;27;19923;-72
2022/07/31 12:57:30;;;;;;;;;;;25.70;99.90;;;;;;5103174;27;20016;-73
2022/07/31 12:59:57;;;;;;;;;;;25.80;99.90;;;;;;5104917;28;19924;-74
2022/07/31 13:02:24;;;;;;;;;;;26.00;99.90;;;;;;5096692;27;20023;-73
2022/07/31 13:04:51;;;;;;;;;;;;;;;;;;5096505;27;20022;-73
2022/07/31 13:07:19;;;;;;;;;;;26.00;99.90;;;;;;5105201;27;20437;-73
2022/07/31 13:09:46;;;;;;;;;;;26.00;99.90;;;;;;5092208;28;19982;-73
2022/07/31 13:12:12;;;;;;;;;;;26.10;99.90;;;;;;5096185;28;19959;-73
2022/07/31 13:14:39;;;;;;;;;;;26.00;99.90;;;;;;5091539;27;19967;-72
2022/07/31 13:17:06;;;;;;;;;;;26.00;99.90;;;;;;5094927;28;20015;-73
2022/07/31 13:19:32;;;;;;;;;;;26.00;99.90;;;;;;5108670;27;19923;-74
2022/07/31 13:21:59;;;;;;;;;;;26.10;99.90;;;;;;5101658;28;20085;-74
2022/07/31 13:24:28;;;;;;;;;;;26.40;99.90;;;;;;5109421;27;20364;-73
2022/07/31 13:26:57;;;;;;;;;;;26.20;99.90;;;;;;5099766;28;19924;-74
2022/07/31 13:29:24;;;;;;;;;;;25.90;99.90;;;;;;5099301;27;19924;-75
2022/07/31 13:31:50;;;;;;;;;;;26.10;99.90;;;;;;5096683;28;20442;-77
2022/07/31 13:34:17;;;;;;;;;;;26.40;99.90;;;;;;5108501;27;20117;-74
2022/07/31 13:36:44;;;;;;;;;;;26.50;99.90;;;;;;5117757;27;20018;-75
2022/07/31 13:39:11;;;;;;;;;;;26.30;99.90;;;;;;5110118;27;19965;-76
2022/07/31 13:41:40;;;;;;;;;;;26.40;99.90;;;;;;5107368;27;19978;-75
2022/07/31 13:44:08;;;;;;;;;;;26.30;99.90;;;;;;5100545;28;19932;-75
2022/07/31 13:46:35;;;;;;;;;;;;;;;;;;5101977;28;19923;-75
2022/07/31 13:49:06;;;;;;;;;;;26.30;99.90;;;;;;5107899;28;19924;-74
2022/07/31 13:51:33;;;;;;;;;;;26.60;99.90;;;;;;5102834;27;19924;-76
2022/07/31 13:54:00;;;;;;;;;;;26.50;99.90;;;;;;5101492;27;19964;-75
2022/07/31 13:56:27;;;;;;;;;;;26.50;99.90;;;;;;5098576;27;19934;-76
2022/07/31 13:58:55;;;;;;;;;;;26.20;99.90;;;;;;5105836;27;19924;-76
2022/07/31 14:01:22;;;;;;;;;;;26.30;99.90;;;;;;5099829;28;19946;-76
2022/07/31 14:03:48;;;;;;;;;;;26.30;99.90;;;;;;5098565;28;19932;-75
2022/07/31 14:06:15;;;;;;;;;;;26.40;99.90;;;;;;5099213;28;19938;-75
2022/07/31 14:08:42;;;;;;;;;;;26.60;99.90;;;;;;5099215;28;20019;-75
2022/07/31 14:11:09;;;;;;;;;;;26.90;99.90;;;;;;5109085;28;19928;-76
2022/07/31 14:13:35;;;;;;;;;;;27.20;99.90;;;;;;5106498;28;19959;-76
2022/07/31 14:16:03;;;;;;;;;;;27.20;99.90;;;;;;5104045;28;20002;-75
2022/07/31 14:18:30;;;;;;;;;;;27.20;99.90;;;;;;5101484;28;20305;-75
2022/07/31 14:20:57;;;;;;;;;;;27.40;99.90;;;;;;5100674;28;20394;-75
2022/07/31 14:23:24;;;;;;;;;;;27.60;99.90;;;;;;5103609;28;20382;-75
2022/07/31 14:25:50;;;;;;;;;;;27.50;99.90;;;;;;5098134;28;19927;-75
2022/07/31 14:28:17;;;;;;;;;;;27.40;99.90;;;;;;5109214;28;19930;-75
2022/07/31 14:30:45;;;;;;;;;;;27.30;99.90;;;;;;5109806;28;20353;-75
2022/07/31 14:33:13;;;;;;;;;;;27.30;99.90;;;;;;5108382;28;19924;-75
2022/07/31 14:35:40;;;;;;;;;;;27.00;99.90;;;;;;5103309;28;19942;-74
2022/07/31 14:38:07;;;;;;;;;;;26.90;99.90;;;;;;5102313;28;20480;-74
2022/07/31 14:40:34;;;;;;;;;;;26.90;99.90;;;;;;5100274;28;19953;-75
2022/07/31 14:43:00;;;;;;;;;;;27.00;99.90;;;;;;5097443;28;19923;-73
2022/07/31 14:45:27;;;;;;;;;;;;;;;;;;5091667;27;19931;-74
2022/07/31 14:47:54;;;;;;;;;;;26.70;99.90;;;;;;5096431;27;20007;-74
2022/07/31 14:50:23;;;;;;;;;;;26.10;99.90;;;;;;5099117;27;19924;-74